Ryoei Maru — JL6703 — position and weather

sailwx.info

Track history (hours):
 
Tides and Currents Weather Stations Pressure Air Temp Water Temp Dewpoint Dewpoint Depression Visibility Wind Speed Wind Dir Waves Ship Positions

Ryoei Maru

Last reported at 2016-Sep-22 20:33 UTC. Time now 2016-Sep-25 00:17 UTC.
Position N 36°00' E 140°58'.

Length 95 m; draft 5 m.

Type: Cargo ship. MMSI: 431501749.

Date/timePositionNaut miles runAvg speedWind from/ knotsBaromVisibWave heightAir tempDewpointWater temp
2016-Sep-22 20:33N 36°00' E 140°58'9712.2
2016-Sep-22 12:33N 34°45' E 139°43'220 8.1
2016-Sep-21 09:32N 34°33' E 135°16'8 7.9
2016-Sep-21 08:29N 34°37' E 135°26'0 0.0
2016-Sep-21 03:29N 34°37' E 135°26'0 0.0
2016-Sep-21 02:23N 34°37' E 135°26'0 0.0
2016-Sep-20 17:29N 34°37' E 135°26'0 0.0
2016-Sep-20 14:29N 34°37' E 135°26'0 0.0
2016-Sep-20 13:29N 34°37' E 135°26'0 0.0
2016-Sep-20 10:05N 34°37' E 135°26'0 0.0
2016-Sep-20 08:17N 34°37' E 135°26'0 0.0
2016-Sep-20 07:29N 34°37' E 135°26'0 0.0
2016-Sep-20 06:29N 34°37' E 135°26'0 0.0
2016-Sep-20 02:29N 34°37' E 135°26'0 0.0
2016-Sep-19 23:29N 34°37' E 135°26'6 1.6
2016-Sep-19 19:31N 34°35' E 135°18'0 0.0
2016-Sep-19 18:19N 34°35' E 135°18'0 0.0
2016-Sep-19 16:25N 34°35' E 135°18'0 0.0
2016-Sep-19 14:33N 34°35' E 135°18'1211.6
2016-Sep-19 13:33N 34°27' E 135°09'1312.6
2016-Sep-19 12:33N 34°17' E 134°59'1312.9
2016-Sep-19 11:31N 34°04' E 135°01'244 9.8
2016-Sep-18 10:34N 35°23' E 139°42'1111.3
2016-Sep-18 09:33N 35°32' E 139°51'6 0.9
2016-Sep-18 02:29N 35°37' E 139°47'0 0.0
2016-Sep-18 01:32N 35°37' E 139°47'0 0.0
2016-Sep-18 00:11N 35°37' E 139°47'0 0.0
2016-Sep-17 22:32N 35°37' E 139°47'3 3.1
2016-Sep-17 21:34N 35°36' E 139°50'1111.4
2016-Sep-17 20:33N 35°24' E 139°47'1612.4
2016-Sep-17 19:16N 35°09' E 139°47'  
2016-Sep-13 18:33N 35°33' E 140°50'1110.6
2016-Sep-13 17:32N 35°24' E 140°42'1211.5
2016-Sep-13 16:31N 35°15' E 140°34'  
Track history (hours):
 
Tides and Currents Weather Stations Pressure Air Temp Water Temp Dewpoint Dewpoint Depression Visibility Wind Speed Wind Dir Waves Ship Positions

Ryoei Maru

Last reported at 2016-Sep-22 20:33 UTC. Time now 2016-Sep-25 00:17 UTC.
Position N 36°00' E 140°58'.

Length 95 m; draft 5 m.

Type: Cargo ship. MMSI: 431501749.

Date/timePositionNaut miles runAvg speedWind from/ knotsBaromVisibWave heightAir tempDewpointWater temp
2016-Sep-22 20:33N 36°00' E 140°58'9712.2
2016-Sep-22 12:33N 34°45' E 139°43'220 8.1
2016-Sep-21 09:32N 34°33' E 135°16'8 7.9
2016-Sep-21 08:29N 34°37' E 135°26'0 0.0
2016-Sep-21 03:29N 34°37' E 135°26'0 0.0
2016-Sep-21 02:23N 34°37' E 135°26'0 0.0
2016-Sep-20 17:29N 34°37' E 135°26'0 0.0
2016-Sep-20 14:29N 34°37' E 135°26'0 0.0
2016-Sep-20 13:29N 34°37' E 135°26'0 0.0
2016-Sep-20 10:05N 34°37' E 135°26'0 0.0
2016-Sep-20 08:17N 34°37' E 135°26'0 0.0
2016-Sep-20 07:29N 34°37' E 135°26'0 0.0
2016-Sep-20 06:29N 34°37' E 135°26'0 0.0
2016-Sep-20 02:29N 34°37' E 135°26'0 0.0
2016-Sep-19 23:29N 34°37' E 135°26'6 1.6
2016-Sep-19 19:31N 34°35' E 135°18'0 0.0
2016-Sep-19 18:19N 34°35' E 135°18'0 0.0
2016-Sep-19 16:25N 34°35' E 135°18'0 0.0
2016-Sep-19 14:33N 34°35' E 135°18'1211.6
2016-Sep-19 13:33N 34°27' E 135°09'1312.6
2016-Sep-19 12:33N 34°17' E 134°59'1312.9
2016-Sep-19 11:31N 34°04' E 135°01'244 9.8
2016-Sep-18 10:34N 35°23' E 139°42'1111.3
2016-Sep-18 09:33N 35°32' E 139°51'6 0.9
2016-Sep-18 02:29N 35°37' E 139°47'0 0.0
2016-Sep-18 01:32N 35°37' E 139°47'0 0.0
2016-Sep-18 00:11N 35°37' E 139°47'0 0.0
2016-Sep-17 22:32N 35°37' E 139°47'3 3.1
2016-Sep-17 21:34N 35°36' E 139°50'1111.4
2016-Sep-17 20:33N 35°24' E 139°47'1612.4
2016-Sep-17 19:16N 35°09' E 139°47'  
2016-Sep-13 18:33N 35°33' E 140°50'1110.6
2016-Sep-13 17:32N 35°24' E 140°42'1211.5
2016-Sep-13 16:31N 35°15' E 140°34'  

Dump ship's entire track history